createdAt,value
2023-04-19T00:00:32.228Z,0
2023-04-19T00:01:32.181Z,1.7702784
2023-04-19T00:02:32.257Z,0
2023-04-19T00:03:32.446Z,0
2023-04-19T00:04:32.547Z,1.7702784
2023-04-19T00:05:32.222Z,0
2023-04-19T00:06:32.154Z,1.7702784
2023-04-19T00:07:32.162Z,0
2023-04-19T00:08:32.164Z,1.7702784
2023-04-19T00:09:32.172Z,0
2023-04-19T00:10:32.159Z,0
2023-04-19T00:11:32.218Z,1.7702784
2023-04-19T00:12:32.146Z,0
2023-04-19T00:13:32.174Z,0
2023-04-19T00:14:32.148Z,1.7702784
2023-04-19T00:15:32.147Z,0
2023-04-19T00:16:32.167Z,3.5405568
2023-04-19T00:17:32.260Z,0
2023-04-19T00:18:32.140Z,0
2023-04-19T00:19:32.167Z,0
2023-04-19T00:20:32.164Z,0
2023-04-19T00:21:32.151Z,0
2023-04-19T00:22:32.165Z,0
2023-04-19T00:23:32.220Z,0
2023-04-19T00:24:32.176Z,1.7702784
2023-04-19T00:25:32.161Z,0
2023-04-19T00:26:32.148Z,0
2023-04-19T00:27:32.162Z,0
2023-04-19T00:28:32.187Z,1.7702784
2023-04-19T00:29:32.149Z,3.5405568
2023-04-19T00:30:32.197Z,0
2023-04-19T00:31:32.193Z,0
2023-04-19T00:32:32.250Z,1.7702784
2023-04-19T00:33:32.148Z,0
2023-04-19T00:34:32.174Z,0
2023-04-19T00:35:32.152Z,0
2023-04-19T00:36:32.197Z,0
2023-04-19T00:37:32.172Z,0
2023-04-19T00:38:32.162Z,0
2023-04-19T00:39:32.143Z,0
2023-04-19T00:40:32.190Z,1.7702784
2023-04-19T00:41:32.190Z,1.7702784
2023-04-19T00:42:32.153Z,1.7702784
2023-04-19T00:43:32.161Z,1.7702784
2023-04-19T00:44:32.199Z,1.7702784
2023-04-19T00:45:32.130Z,0
2023-04-19T00:46:32.210Z,1.7702784
2023-04-19T00:47:32.172Z,1.7702784
2023-04-19T00:48:32.232Z,1.7702784
2023-04-19T00:49:32.143Z,0
2023-04-19T00:50:32.170Z,1.7702784
2023-04-19T00:51:32.151Z,0
2023-04-19T00:52:32.147Z,1.7702784
2023-04-19T00:53:32.113Z,0
2023-04-19T00:54:32.144Z,3.5405568
2023-04-19T00:55:32.132Z,3.5405568
2023-04-19T00:56:32.184Z,1.7702784
2023-04-19T00:57:32.203Z,1.7702784
2023-04-19T00:58:32.156Z,0
2023-04-19T00:59:32.146Z,0
2023-04-19T01:00:32.204Z,1.7702784
2023-04-19T01:01:32.233Z,1.7702784
2023-04-19T01:02:32.268Z,0
2023-04-19T01:03:32.257Z,0
2023-04-19T01:04:32.385Z,0
2023-04-19T01:05:32.164Z,1.7702784
2023-04-19T01:06:32.162Z,1.7702784
2023-04-19T01:07:32.162Z,1.7702784
2023-04-19T01:08:32.197Z,1.7702784
2023-04-19T01:09:32.159Z,0
2023-04-19T01:10:32.152Z,1.7702784
2023-04-19T01:11:32.118Z,0
2023-04-19T01:12:32.169Z,0
2023-04-19T01:13:32.171Z,1.7702784
2023-04-19T01:14:32.154Z,1.7702784
2023-04-19T01:15:32.214Z,0
2023-04-19T01:16:32.225Z,0
2023-04-19T01:17:32.176Z,1.7702784
2023-04-19T01:18:32.163Z,0
2023-04-19T01:19:32.122Z,0
2023-04-19T01:20:32.171Z,0
2023-04-19T01:21:32.145Z,0
2023-04-19T01:22:32.174Z,1.7702784
2023-04-19T01:23:32.155Z,0
2023-04-19T01:24:32.110Z,0
2023-04-19T01:25:32.135Z,1.7702784
2023-04-19T01:26:32.152Z,1.7702784
2023-04-19T01:27:32.144Z,0
2023-04-19T01:28:32.175Z,0
2023-04-19T01:29:32.156Z,0
2023-04-19T01:30:32.144Z,1.7702784
2023-04-19T01:31:32.269Z,0
2023-04-19T01:32:32.239Z,0
2023-04-19T01:33:32.182Z,1.7702784
2023-04-19T01:34:32.127Z,1.7702784
2023-04-19T01:35:32.168Z,1.7702784
2023-04-19T01:36:32.157Z,0
2023-04-19T01:37:32.175Z,0
2023-04-19T01:38:32.145Z,0
2023-04-19T01:39:32.153Z,0
2023-04-19T01:40:32.303Z,0
2023-04-19T01:41:32.312Z,0
2023-04-19T01:42:32.313Z,3.5405568
2023-04-19T01:43:32.382Z,0
2023-04-19T01:44:32.250Z,1.7702784
2023-04-19T01:45:32.250Z,0
2023-04-19T01:46:32.362Z,0
2023-04-19T01:47:32.342Z,0
2023-04-19T01:48:32.276Z,0
2023-04-19T01:49:32.221Z,0
2023-04-19T01:50:32.269Z,1.7702784
2023-04-19T01:51:32.280Z,0
2023-04-19T01:52:32.274Z,1.7702784
2023-04-19T01:53:32.295Z,0
2023-04-19T01:54:32.266Z,0
2023-04-19T01:55:32.295Z,0
2023-04-19T01:56:32.240Z,0
2023-04-19T01:57:32.174Z,0
2023-04-19T01:58:32.146Z,0
2023-04-19T01:59:32.155Z,1.7702784
2023-04-19T02:00:32.176Z,0
2023-04-19T02:01:32.191Z,1.7702784
2023-04-19T02:02:32.252Z,0
2023-04-19T02:03:32.428Z,0
2023-04-19T02:04:32.158Z,1.7702784
2023-04-19T02:05:32.174Z,0
2023-04-19T02:06:32.133Z,1.7702784
2023-04-19T02:07:32.238Z,0
2023-04-19T02:08:32.169Z,0
2023-04-19T02:09:32.177Z,0
2023-04-19T02:10:32.161Z,0
2023-04-19T02:11:32.146Z,0
2023-04-19T02:12:32.133Z,0
2023-04-19T02:13:32.138Z,0
2023-04-19T02:14:32.163Z,0
2023-04-19T02:15:32.149Z,0
2023-04-19T02:16:33.241Z,0
2023-04-19T02:17:32.221Z,0
2023-04-19T02:18:32.121Z,0
2023-04-19T02:19:32.146Z,0
2023-04-19T02:20:32.168Z,0
2023-04-19T02:21:32.166Z,0
2023-04-19T02:22:32.123Z,0
2023-04-19T02:23:32.261Z,0
2023-04-19T02:24:32.117Z,0
2023-04-19T02:25:32.180Z,0
2023-04-19T02:26:32.128Z,0
2023-04-19T02:27:32.209Z,1.7702784
2023-04-19T02:28:32.144Z,0
2023-04-19T02:29:32.173Z,0
2023-04-19T02:30:32.152Z,0
2023-04-19T02:31:32.175Z,0
2023-04-19T02:32:32.151Z,0
2023-04-19T02:33:32.169Z,0
2023-04-19T02:34:32.143Z,1.7702784
2023-04-19T02:35:32.173Z,0
2023-04-19T02:36:32.134Z,0
2023-04-19T02:37:32.173Z,0
2023-04-19T02:38:32.140Z,1.7702784
2023-04-19T02:39:32.140Z,0
2023-04-19T02:40:32.139Z,0
2023-04-19T02:41:32.214Z,0
2023-04-19T02:42:32.104Z,0
2023-04-19T02:43:32.134Z,0
2023-04-19T02:44:32.119Z,0
2023-04-19T02:45:32.148Z,0
2023-04-19T02:46:32.269Z,0
2023-04-19T02:47:32.162Z,0
2023-04-19T02:48:32.150Z,0
2023-04-19T02:49:32.163Z,0
2023-04-19T02:50:32.117Z,1.7702784
2023-04-19T02:51:32.173Z,0
2023-04-19T02:52:32.152Z,0
2023-04-19T02:53:32.173Z,0
2023-04-19T02:54:32.135Z,0
2023-04-19T02:55:32.149Z,0
2023-04-19T02:56:32.128Z,0
2023-04-19T02:57:32.162Z,0
2023-04-19T02:58:32.129Z,0
2023-04-19T02:59:32.138Z,0
2023-04-19T03:00:32.122Z,0
2023-04-19T03:01:32.196Z,0
2023-04-19T03:02:32.187Z,0
2023-04-19T03:03:32.196Z,0
2023-04-19T03:04:32.137Z,0
2023-04-19T03:05:32.168Z,0
2023-04-19T03:06:32.181Z,0
2023-04-19T03:07:32.141Z,0
2023-04-19T03:08:32.134Z,0
2023-04-19T03:09:32.176Z,0
2023-04-19T03:10:32.275Z,0
2023-04-19T03:11:32.121Z,0
2023-04-19T03:12:32.296Z,0
2023-04-19T03:13:32.228Z,0
2023-04-19T03:14:32.235Z,0
2023-04-19T03:15:32.162Z,0
2023-04-19T03:16:32.264Z,1.7702784
2023-04-19T03:17:32.329Z,1.7702784
2023-04-19T03:18:32.217Z,0
2023-04-19T03:19:32.153Z,0
2023-04-19T03:20:32.110Z,1.7702784
2023-04-19T03:21:32.135Z,0
2023-04-19T03:22:32.173Z,0
2023-04-19T03:23:32.137Z,0
2023-04-19T03:24:32.120Z,0
2023-04-19T03:25:32.275Z,0
2023-04-19T03:26:32.301Z,0
2023-04-19T03:27:32.317Z,0
2023-04-19T03:28:32.188Z,0
2023-04-19T03:29:32.140Z,0
2023-04-19T03:30:32.137Z,1.7702784
2023-04-19T03:31:32.303Z,0
2023-04-19T03:32:32.261Z,1.7702784
2023-04-19T03:33:32.153Z,0
2023-04-19T03:34:32.262Z,0
2023-04-19T03:35:32.131Z,0
2023-04-19T03:36:32.238Z,0
2023-04-19T03:37:32.187Z,0
2023-04-19T03:38:32.297Z,1.7702784
2023-04-19T03:39:32.200Z,0
2023-04-19T03:40:32.201Z,1.7702784
2023-04-19T03:41:32.251Z,0
2023-04-19T03:42:32.265Z,0
2023-04-19T03:43:32.181Z,0
2023-04-19T03:44:32.207Z,0
2023-04-19T03:45:32.250Z,0
2023-04-19T03:46:32.146Z,0
2023-04-19T03:47:32.259Z,0
2023-04-19T03:48:32.113Z,0
2023-04-19T03:49:32.281Z,0
2023-04-19T03:50:32.248Z,0
2023-04-19T03:51:32.199Z,0
2023-04-19T03:52:32.302Z,0
2023-04-19T03:53:32.136Z,3.5405568
2023-04-19T03:54:32.110Z,0
2023-04-19T03:55:32.112Z,0
2023-04-19T03:56:32.128Z,0
2023-04-19T03:57:32.154Z,0
2023-04-19T03:58:32.158Z,0
2023-04-19T03:59:32.080Z,0
2023-04-19T04:00:32.116Z,0
2023-04-19T04:01:32.160Z,0
2023-04-19T04:02:32.206Z,0
2023-04-19T04:03:32.244Z,1.7702784
2023-04-19T04:04:32.382Z,1.7702784
2023-04-19T04:05:32.246Z,0
2023-04-19T04:06:32.108Z,1.7702784
2023-04-19T04:07:32.119Z,0
2023-04-19T04:08:32.176Z,0
2023-04-19T04:09:32.150Z,0
2023-04-19T04:10:32.112Z,0
2023-04-19T04:11:32.094Z,0
2023-04-19T04:12:32.096Z,0
2023-04-19T04:13:32.158Z,0
2023-04-19T04:14:32.123Z,1.7702784
2023-04-19T04:15:32.110Z,0
2023-04-19T04:16:32.184Z,1.7702784
2023-04-19T04:17:32.149Z,1.7702784
2023-04-19T04:18:32.106Z,0
2023-04-19T04:19:32.092Z,0
2023-04-19T04:20:32.093Z,1.7702784
2023-04-19T04:21:32.116Z,1.7702784
2023-04-19T04:22:32.120Z,1.7702784
2023-04-19T04:23:32.108Z,0
2023-04-19T04:24:32.101Z,0
2023-04-19T04:25:32.238Z,0
2023-04-19T04:26:32.160Z,0
2023-04-19T04:27:32.104Z,1.7702784
2023-04-19T04:28:32.115Z,1.7702784
2023-04-19T04:29:32.155Z,0
2023-04-19T04:30:32.116Z,0
2023-04-19T04:31:32.147Z,0
2023-04-19T04:32:32.118Z,0
2023-04-19T04:33:32.259Z,0
2023-04-19T04:34:32.118Z,1.7702784
2023-04-19T04:35:32.148Z,0
2023-04-19T04:36:32.145Z,0
2023-04-19T04:37:32.119Z,0
2023-04-19T04:38:32.117Z,0
2023-04-19T04:39:32.125Z,0
2023-04-19T04:40:32.192Z,0
2023-04-19T04:41:32.137Z,1.7702784
2023-04-19T04:42:32.147Z,0
2023-04-19T04:43:32.196Z,0
2023-04-19T04:44:32.111Z,1.7702784
2023-04-19T04:45:32.250Z,1.7702784
2023-04-19T04:46:32.107Z,0
2023-04-19T04:47:32.162Z,0
2023-04-19T04:48:32.131Z,1.7702784
2023-04-19T04:49:32.138Z,1.7702784
2023-04-19T04:50:32.126Z,1.7702784
2023-04-19T04:51:32.221Z,1.7702784
2023-04-19T04:52:32.097Z,1.7702784
2023-04-19T04:53:32.166Z,3.5405568
2023-04-19T04:54:32.143Z,0
2023-04-19T04:55:32.096Z,0
2023-04-19T04:56:32.154Z,1.7702784
2023-04-19T04:57:32.154Z,0
2023-04-19T04:58:32.120Z,0
2023-04-19T04:59:32.135Z,0
2023-04-19T05:00:32.115Z,0
2023-04-19T05:01:32.241Z,0
2023-04-19T05:02:32.262Z,1.7702784
2023-04-19T05:03:32.188Z,1.7702784
2023-04-19T05:04:32.182Z,1.7702784
2023-04-19T05:05:32.281Z,0
2023-04-19T05:06:32.149Z,0
2023-04-19T05:07:32.158Z,0
2023-04-19T05:08:32.225Z,1.7702784
2023-04-19T05:09:32.180Z,0
2023-04-19T05:10:32.167Z,1.7702784
2023-04-19T05:11:32.131Z,0
2023-04-19T05:12:32.114Z,0
2023-04-19T05:13:32.111Z,0
2023-04-19T05:14:32.111Z,0
2023-04-19T05:15:32.096Z,0
2023-04-19T05:16:32.146Z,0
2023-04-19T05:17:32.159Z,0
2023-04-19T05:18:32.139Z,0
2023-04-19T05:19:32.143Z,0
2023-04-19T05:20:32.155Z,0
2023-04-19T05:21:32.200Z,1.7702784
2023-04-19T05:22:32.166Z,0
2023-04-19T05:23:32.118Z,0
2023-04-19T05:24:32.237Z,0
2023-04-19T05:25:32.100Z,0
2023-04-19T05:26:32.147Z,0
2023-04-19T05:27:32.103Z,1.7702784
2023-04-19T05:28:32.181Z,0
2023-04-19T05:29:32.113Z,0
2023-04-19T05:30:32.133Z,1.7702784
2023-04-19T05:31:32.136Z,0
2023-04-19T05:32:32.188Z,0
2023-04-19T05:33:32.138Z,1.7702784
2023-04-19T05:34:32.109Z,0
2023-04-19T05:35:32.144Z,1.7702784
2023-04-19T05:36:32.167Z,0
2023-04-19T05:37:32.193Z,1.7702784
2023-04-19T05:38:32.167Z,0
2023-04-19T05:39:32.142Z,1.7702784
2023-04-19T05:40:32.162Z,1.7702784
2023-04-19T05:41:32.120Z,0
2023-04-19T05:42:32.124Z,1.7702784
2023-04-19T05:43:32.151Z,0
2023-04-19T05:44:32.134Z,1.7702784
2023-04-19T05:45:32.094Z,0
2023-04-19T05:46:32.257Z,1.7702784
2023-04-19T05:47:32.239Z,1.7702784
2023-04-19T05:48:32.167Z,0
2023-04-19T05:49:32.126Z,0
2023-04-19T05:50:32.138Z,1.7702784
2023-04-19T05:51:32.170Z,0
2023-04-19T05:52:32.132Z,1.7702784
2023-04-19T05:53:32.096Z,0
2023-04-19T05:54:32.120Z,0
2023-04-19T05:55:32.093Z,1.7702784
2023-04-19T05:56:32.136Z,1.7702784
2023-04-19T05:57:32.144Z,0
2023-04-19T05:58:32.126Z,1.7702784
2023-04-19T05:59:32.148Z,1.7702784
2023-04-19T06:00:32.167Z,0
2023-04-19T06:01:32.113Z,0
2023-04-19T06:02:32.299Z,1.7702784
2023-04-19T06:03:32.466Z,1.7702784
2023-04-19T06:04:32.339Z,1.7702784
2023-04-19T06:05:32.158Z,1.7702784
2023-04-19T06:06:32.110Z,1.7702784
2023-04-19T06:07:34.475Z,0
2023-04-19T06:08:32.155Z,1.7702784
2023-04-19T06:09:32.112Z,1.7702784
2023-04-19T06:10:44.507Z,1.7702784
2023-04-19T06:11:42.906Z,1.7702784
2023-04-19T06:12:32.234Z,0
2023-04-19T06:13:32.109Z,3.5405568
2023-04-19T06:14:32.137Z,0
2023-04-19T06:15:32.120Z,0
2023-04-19T06:16:32.268Z,1.7702784
2023-04-19T06:17:32.136Z,3.5405568
2023-04-19T06:18:32.140Z,3.5405568
2023-04-19T06:19:32.104Z,0
2023-04-19T06:20:32.109Z,0
2023-04-19T06:21:32.201Z,0
2023-04-19T06:22:32.183Z,0
2023-04-19T06:23:32.108Z,0
2023-04-19T06:24:33.251Z,0
2023-04-19T06:25:32.110Z,1.7702784
2023-04-19T06:26:32.132Z,0
2023-04-19T06:27:32.098Z,1.7702784
2023-04-19T06:28:32.125Z,0
2023-04-19T06:29:32.110Z,1.7702784
2023-04-19T06:30:32.108Z,0
2023-04-19T06:31:32.127Z,0
2023-04-19T06:32:32.152Z,0
2023-04-19T06:33:32.098Z,3.5405568
2023-04-19T06:34:32.144Z,0
2023-04-19T06:35:32.125Z,1.7702784
2023-04-19T06:36:32.163Z,0
2023-04-19T06:37:32.092Z,1.7702784
2023-04-19T06:38:32.158Z,1.7702784
2023-04-19T06:39:32.202Z,1.7702784
2023-04-19T06:40:32.098Z,0
2023-04-19T06:41:32.113Z,0
2023-04-19T06:42:32.156Z,0
2023-04-19T06:43:32.131Z,0
2023-04-19T06:44:32.157Z,0
2023-04-19T06:45:32.208Z,3.5405568
2023-04-19T06:46:32.527Z,0
2023-04-19T06:47:33.490Z,1.7702784
2023-04-19T06:48:32.162Z,1.7702784
2023-04-19T06:49:32.122Z,0
2023-04-19T06:50:32.156Z,0
2023-04-19T06:51:32.151Z,0
2023-04-19T06:52:32.104Z,1.7702784
2023-04-19T06:53:32.126Z,1.7702784
2023-04-19T06:54:32.149Z,1.7702784
2023-04-19T06:55:32.179Z,1.7702784
2023-04-19T06:56:32.098Z,1.7702784
2023-04-19T06:57:32.161Z,3.5405568
2023-04-19T06:58:34.074Z,3.5405568
2023-04-19T06:59:32.114Z,5.4717696
2023-04-19T07:00:32.295Z,7.2420480000000005
2023-04-19T07:01:32.152Z,3.5405568
2023-04-19T07:02:32.232Z,5.4717696
2023-04-19T07:03:32.462Z,0
2023-04-19T07:04:32.216Z,0
2023-04-19T07:05:32.148Z,3.5405568
2023-04-19T07:06:32.135Z,1.7702784
2023-04-19T07:07:32.093Z,0
2023-04-19T07:08:46.485Z,1.7702784
2023-04-19T07:09:32.162Z,1.7702784
2023-04-19T07:10:32.144Z,0
2023-04-19T07:11:32.124Z,0
2023-04-19T07:12:32.157Z,0
2023-04-19T07:13:32.108Z,0
2023-04-19T07:14:32.109Z,5.4717696
2023-04-19T07:15:32.107Z,1.7702784
2023-04-19T07:16:32.118Z,1.7702784
2023-04-19T07:17:32.163Z,0
2023-04-19T07:18:32.138Z,0
2023-04-19T07:19:32.111Z,1.7702784
2023-04-19T07:20:32.117Z,0
2023-04-19T07:21:32.126Z,0
2023-04-19T07:22:32.139Z,3.5405568
2023-04-19T07:23:32.104Z,0
2023-04-19T07:24:32.126Z,1.7702784
2023-04-19T07:25:32.100Z,3.5405568
2023-04-19T07:26:32.091Z,1.7702784
2023-04-19T07:27:32.091Z,1.7702784
2023-04-19T07:28:32.129Z,0
2023-04-19T07:29:32.124Z,1.7702784
2023-04-19T07:30:32.113Z,0
2023-04-19T07:31:32.121Z,3.5405568
2023-04-19T07:32:32.161Z,1.7702784
2023-04-19T07:33:32.121Z,3.5405568
2023-04-19T07:34:32.072Z,1.7702784
2023-04-19T07:35:32.103Z,0
2023-04-19T07:36:32.149Z,0
2023-04-19T07:37:32.159Z,0
2023-04-19T07:38:32.101Z,0
2023-04-19T07:39:32.148Z,0
2023-04-19T07:40:32.144Z,1.7702784
2023-04-19T07:41:32.120Z,0
2023-04-19T07:42:32.084Z,1.7702784
2023-04-19T07:43:32.088Z,0
2023-04-19T07:44:32.103Z,0
2023-04-19T07:45:32.137Z,1.7702784
2023-04-19T07:46:32.226Z,1.7702784
2023-04-19T07:47:32.123Z,1.7702784
2023-04-19T07:48:32.145Z,1.7702784
2023-04-19T07:49:32.098Z,1.7702784
2023-04-19T07:50:32.088Z,0
2023-04-19T07:51:32.096Z,0
2023-04-19T07:52:32.124Z,1.7702784
2023-04-19T07:53:32.092Z,1.7702784
2023-04-19T07:54:32.092Z,3.5405568
2023-04-19T07:55:32.090Z,5.4717696
2023-04-19T07:56:32.109Z,7.2420480000000005
2023-04-19T07:57:32.123Z,1.7702784
2023-04-19T07:58:32.147Z,0
2023-04-19T07:59:32.085Z,3.5405568
2023-04-19T08:00:32.197Z,0
2023-04-19T08:01:32.877Z,1.7702784
2023-04-19T08:02:32.255Z,0
2023-04-19T08:03:32.317Z,5.4717696
2023-04-19T08:04:32.426Z,5.4717696
2023-04-19T08:05:32.166Z,3.5405568
2023-04-19T08:06:32.108Z,1.7702784
2023-04-19T08:07:32.098Z,3.5405568
2023-04-19T08:08:34.058Z,1.7702784
2023-04-19T08:09:32.149Z,0
2023-04-19T08:10:32.112Z,1.7702784
2023-04-19T08:11:32.106Z,0
2023-04-19T08:12:40.516Z,0
2023-04-19T08:13:32.094Z,1.7702784
2023-04-19T08:14:40.350Z,1.7702784
2023-04-19T08:17:11.434Z,5.4717696
2023-04-19T08:17:39.238Z,1.7702784
2023-04-19T08:18:32.138Z,1.7702784
2023-04-19T08:19:32.109Z,3.5405568
2023-04-19T08:20:32.108Z,0
2023-04-19T08:21:40.605Z,0
2023-04-19T08:22:32.099Z,3.5405568
2023-04-19T08:23:45.018Z,0
2023-04-19T08:24:32.070Z,0
2023-04-19T08:25:32.108Z,0
2023-04-19T08:26:32.133Z,0
2023-04-19T08:27:32.107Z,0
2023-04-19T08:28:32.114Z,1.7702784
2023-04-19T08:29:32.343Z,3.5405568
2023-04-19T08:30:32.105Z,0
2023-04-19T08:31:32.189Z,0
2023-04-19T08:32:32.151Z,3.5405568
2023-04-19T08:33:32.116Z,3.5405568
2023-04-19T08:34:32.148Z,5.4717696
2023-04-19T08:35:32.124Z,3.5405568
2023-04-19T08:36:37.722Z,3.5405568
2023-04-19T08:37:32.093Z,3.5405568
2023-04-19T08:38:32.092Z,0
2023-04-19T08:39:33.471Z,3.5405568
2023-04-19T08:40:32.108Z,0
2023-04-19T08:41:32.085Z,1.7702784
2023-04-19T08:42:36.395Z,3.5405568
2023-04-19T08:43:32.109Z,1.7702784
2023-04-19T08:44:36.389Z,5.4717696
2023-04-19T08:45:32.110Z,5.4717696
2023-04-19T08:46:32.211Z,3.5405568
2023-04-19T08:47:34.066Z,3.5405568
2023-04-19T08:48:32.169Z,1.7702784
2023-04-19T08:49:32.101Z,5.4717696
2023-04-19T08:50:38.858Z,3.5405568
2023-04-19T08:51:32.143Z,3.5405568
2023-04-19T08:52:32.847Z,0
2023-04-19T08:53:32.105Z,0
2023-04-19T08:54:32.120Z,5.4717696
2023-04-19T08:55:32.182Z,0
2023-04-19T08:56:35.676Z,7.2420480000000005
2023-04-19T08:57:32.124Z,1.7702784
2023-04-19T08:58:41.319Z,3.5405568
2023-04-19T08:59:32.109Z,0
2023-04-19T09:00:32.154Z,0
2023-04-19T09:01:35.849Z,1.7702784
2023-04-19T09:02:32.244Z,5.4717696
2023-04-19T09:03:36.315Z,0
2023-04-19T09:04:36.232Z,0
2023-04-19T09:05:32.213Z,0
2023-04-19T09:06:32.242Z,0
2023-04-19T09:07:32.157Z,7.2420480000000005
2023-04-19T09:08:32.121Z,7.2420480000000005
2023-04-19T09:09:37.238Z,5.4717696
2023-04-19T09:10:32.078Z,3.5405568
2023-04-19T09:11:32.142Z,1.7702784
2023-04-19T09:12:32.099Z,0
2023-04-19T09:13:32.140Z,5.4717696
2023-04-19T09:14:32.100Z,5.4717696
2023-04-19T09:15:32.135Z,3.5405568
2023-04-19T09:16:32.092Z,0
2023-04-19T09:17:32.258Z,1.7702784
2023-04-19T09:18:35.778Z,3.5405568
2023-04-19T09:19:32.113Z,5.4717696
2023-04-19T09:20:32.098Z,1.7702784
2023-04-19T09:21:32.099Z,3.5405568
2023-04-19T09:22:32.098Z,3.5405568
2023-04-19T09:23:32.126Z,3.5405568
2023-04-19T09:24:49.686Z,5.4717696
2023-04-19T09:25:52.293Z,3.5405568
2023-04-19T09:26:32.109Z,3.5405568
2023-04-19T09:27:32.122Z,5.4717696
2023-04-19T09:28:32.147Z,5.4717696
2023-04-19T09:29:32.072Z,3.5405568
2023-04-19T09:30:37.877Z,1.7702784
2023-04-19T09:31:50.182Z,1.7702784
2023-04-19T09:32:32.167Z,1.7702784
2023-04-19T09:33:32.133Z,7.2420480000000005
2023-04-19T09:34:32.185Z,3.5405568
2023-04-19T09:35:32.113Z,3.5405568
2023-04-19T09:36:32.088Z,3.5405568
2023-04-19T09:37:56.783Z,0
2023-04-19T09:38:32.087Z,3.5405568
2023-04-19T09:39:32.130Z,5.4717696
2023-04-19T09:40:32.092Z,0
2023-04-19T09:41:32.101Z,0
2023-04-19T09:42:47.830Z,0
2023-04-19T09:43:55.877Z,1.7702784
2023-04-19T09:44:52.950Z,0
2023-04-19T09:45:32.100Z,3.5405568
2023-04-19T09:46:32.125Z,1.7702784
2023-04-19T09:47:32.114Z,1.7702784
2023-04-19T09:48:32.101Z,3.5405568
2023-04-19T09:50:33.470Z,5.4717696
2023-04-19T09:51:32.133Z,3.5405568
2023-04-19T09:52:32.072Z,9.3341952
2023-04-19T09:53:32.065Z,11.1044736
2023-04-19T09:54:32.078Z,1.7702784
2023-04-19T09:55:39.166Z,1.7702784
2023-04-19T09:56:32.077Z,5.4717696
2023-04-19T09:57:32.099Z,1.7702784
2023-04-19T09:58:46.312Z,3.5405568
2023-04-19T09:59:32.123Z,0
2023-04-19T10:00:41.792Z,5.4717696
2023-04-19T10:01:32.139Z,7.2420480000000005
2023-04-19T10:02:32.209Z,3.5405568
2023-04-19T10:03:32.233Z,5.4717696
2023-04-19T10:05:32.184Z,3.5405568
2023-04-19T10:06:51.877Z,0
2023-04-19T10:07:32.155Z,5.4717696
2023-04-19T10:08:32.102Z,11.1044736
2023-04-19T10:09:34.091Z,0
2023-04-19T10:10:41.667Z,3.5405568
2023-04-19T10:11:32.193Z,5.4717696
2023-04-19T10:13:32.064Z,3.5405568
2023-04-19T10:14:32.086Z,5.4717696
2023-04-19T10:15:43.278Z,3.5405568
2023-04-19T10:16:32.123Z,5.4717696
2023-04-19T10:17:32.139Z,7.2420480000000005
2023-04-19T10:18:32.092Z,5.4717696
2023-04-19T10:19:32.118Z,3.5405568
2023-04-19T10:20:32.078Z,9.3341952
2023-04-19T10:21:32.096Z,11.1044736
2023-04-19T10:22:32.092Z,3.5405568
2023-04-19T10:23:32.103Z,5.4717696
2023-04-19T10:24:32.113Z,5.4717696
2023-04-19T10:25:32.070Z,5.4717696
2023-04-19T10:26:32.138Z,3.5405568
2023-04-19T10:27:32.064Z,7.2420480000000005
2023-04-19T10:28:32.140Z,11.1044736
2023-04-19T10:29:32.065Z,7.2420480000000005
2023-04-19T10:30:32.077Z,0
2023-04-19T10:31:32.085Z,7.2420480000000005
2023-04-19T10:32:32.109Z,9.3341952
2023-04-19T10:33:32.113Z,9.3341952
2023-04-19T10:34:32.097Z,7.2420480000000005
2023-04-19T10:35:32.246Z,3.5405568
2023-04-19T10:36:32.122Z,7.2420480000000005
2023-04-19T10:37:32.098Z,3.5405568
2023-04-19T10:38:32.087Z,5.4717696
2023-04-19T10:39:32.100Z,9.3341952
2023-04-19T10:40:32.111Z,9.3341952
2023-04-19T10:41:32.158Z,5.4717696
2023-04-19T10:42:32.082Z,7.2420480000000005
2023-04-19T10:43:32.069Z,5.4717696
2023-04-19T10:44:32.133Z,7.2420480000000005
2023-04-19T10:45:32.077Z,3.5405568
2023-04-19T10:46:32.181Z,3.5405568
2023-04-19T10:47:32.095Z,3.5405568
2023-04-19T10:48:32.100Z,5.4717696
2023-04-19T10:49:32.085Z,0
2023-04-19T10:50:32.090Z,1.7702784
2023-04-19T10:51:32.082Z,1.7702784
2023-04-19T10:52:32.091Z,3.5405568
2023-04-19T10:53:32.062Z,3.5405568
2023-04-19T10:54:32.084Z,7.2420480000000005
2023-04-19T10:55:32.087Z,3.5405568
2023-04-19T10:56:32.121Z,7.2420480000000005
2023-04-19T10:57:32.099Z,5.4717696
2023-04-19T10:58:32.086Z,3.5405568
2023-04-19T10:59:32.109Z,7.2420480000000005
2023-04-19T11:00:32.107Z,5.4717696
2023-04-19T11:01:32.128Z,9.3341952
2023-04-19T11:02:32.226Z,5.4717696
2023-04-19T11:03:32.338Z,1.7702784
2023-04-19T11:04:32.348Z,1.7702784
2023-04-19T11:05:32.091Z,3.5405568
2023-04-19T11:06:32.091Z,5.4717696
2023-04-19T11:07:32.061Z,3.5405568
2023-04-19T11:08:32.104Z,5.4717696
2023-04-19T11:09:32.069Z,3.5405568
2023-04-19T11:10:32.075Z,1.7702784
2023-04-19T11:11:32.073Z,5.4717696
2023-04-19T11:12:32.100Z,3.5405568
2023-04-19T11:13:32.089Z,0
2023-04-19T11:14:32.171Z,0
2023-04-19T11:15:32.055Z,3.5405568
2023-04-19T11:16:45.206Z,0
2023-04-19T11:17:32.368Z,5.4717696
2023-04-19T11:18:32.302Z,7.2420480000000005
2023-04-19T11:19:32.074Z,7.2420480000000005
2023-04-19T11:20:32.109Z,3.5405568
2023-04-19T11:21:32.108Z,5.4717696
2023-04-19T11:22:32.117Z,7.2420480000000005
2023-04-19T11:23:32.084Z,5.4717696
2023-04-19T11:24:32.104Z,7.2420480000000005
2023-04-19T11:25:32.106Z,5.4717696
2023-04-19T11:26:32.113Z,9.3341952
2023-04-19T11:27:32.054Z,5.4717696
2023-04-19T11:28:32.074Z,3.5405568
2023-04-19T11:29:32.075Z,5.4717696
2023-04-19T11:30:32.120Z,9.3341952
2023-04-19T11:31:32.176Z,7.2420480000000005
2023-04-19T11:32:32.112Z,3.5405568
2023-04-19T11:33:32.065Z,9.3341952
2023-04-19T11:34:32.157Z,7.2420480000000005
2023-04-19T11:35:32.088Z,9.3341952
2023-04-19T11:36:32.137Z,3.5405568
2023-04-19T11:37:32.159Z,3.5405568
2023-04-19T11:38:32.084Z,0
2023-04-19T11:39:32.076Z,5.4717696
2023-04-19T11:40:32.144Z,7.2420480000000005
2023-04-19T11:41:32.131Z,11.1044736
2023-04-19T11:42:32.100Z,5.4717696
2023-04-19T11:43:32.080Z,3.5405568
2023-04-19T11:44:32.099Z,1.7702784
2023-04-19T11:45:34.832Z,1.7702784
2023-04-19T11:46:32.106Z,9.3341952
2023-04-19T11:47:32.087Z,7.2420480000000005
2023-04-19T11:48:32.067Z,13.0356864
2023-04-19T11:49:32.052Z,7.2420480000000005
2023-04-19T11:50:32.086Z,7.2420480000000005
2023-04-19T11:51:32.069Z,5.4717696
2023-04-19T11:52:32.147Z,5.4717696
2023-04-19T11:53:32.089Z,5.4717696
2023-04-19T11:54:32.156Z,7.2420480000000005
2023-04-19T11:55:32.227Z,7.2420480000000005
2023-04-19T11:56:32.131Z,7.2420480000000005
2023-04-19T11:57:32.074Z,1.7702784
2023-04-19T11:58:32.201Z,7.2420480000000005
2023-04-19T11:59:32.081Z,3.5405568
2023-04-19T12:00:32.158Z,1.7702784
2023-04-19T12:01:32.090Z,3.5405568
2023-04-19T12:02:32.197Z,3.5405568
2023-04-19T12:03:32.352Z,0
2023-04-19T12:04:32.318Z,3.5405568
2023-04-19T12:05:32.200Z,3.5405568
2023-04-19T12:06:32.113Z,5.4717696
2023-04-19T12:07:32.100Z,5.4717696
2023-04-19T12:08:32.116Z,3.5405568
2023-04-19T12:09:32.045Z,3.5405568
2023-04-19T12:10:32.073Z,3.5405568
2023-04-19T12:11:32.096Z,1.7702784
2023-04-19T12:12:32.123Z,3.5405568
2023-04-19T12:13:32.075Z,9.3341952
2023-04-19T12:14:32.071Z,11.1044736
2023-04-19T12:15:32.146Z,5.4717696
2023-04-19T12:16:32.211Z,3.5405568
2023-04-19T12:17:32.120Z,1.7702784
2023-04-19T12:18:32.091Z,5.4717696
2023-04-19T12:19:32.070Z,5.4717696
2023-04-19T12:20:32.101Z,5.4717696
2023-04-19T12:21:32.135Z,3.5405568
2023-04-19T12:22:32.203Z,7.2420480000000005
2023-04-19T12:23:32.059Z,3.5405568
2023-04-19T12:24:32.020Z,9.3341952
2023-04-19T12:25:32.092Z,7.2420480000000005
2023-04-19T12:26:32.089Z,0
2023-04-19T12:27:32.064Z,0
2023-04-19T12:28:32.133Z,1.7702784
2023-04-19T12:29:32.085Z,3.5405568
2023-04-19T12:30:32.096Z,5.4717696
2023-04-19T12:31:32.124Z,3.5405568
2023-04-19T12:32:32.160Z,5.4717696
2023-04-19T12:33:32.072Z,3.5405568
2023-04-19T12:34:32.070Z,1.7702784
2023-04-19T12:35:32.052Z,7.2420480000000005
2023-04-19T12:36:32.084Z,3.5405568
2023-04-19T12:37:31.961Z,1.7702784
2023-04-19T12:38:32.066Z,5.4717696
2023-04-19T12:39:32.105Z,0